Terminal Aerodrome Forecast
Issued by NWS Blacksburg, VA

Current Version | Previous Version | Graphics & Text | Print | Product List | Glossary On
Versions: 1 2 3 4 5 6 7 8 9 10 11 12 13 14 15 16
000
FTUS41 KRNK 190520
TAFBLF
TAF
KBLF 190520Z 1906/2006 16012G22KT P6SM -RA OVC040
     FM190900 16009G19KT P6SM -RA OVC008
      TEMPO 1910/1912 3SM RA
     FM191600 18008KT P6SM BKN035
     FM192100 20007KT P6SM BKN050=

USA.gov is the U.S. government's official web portal to all federal, state and local government web resources and services.